sensor_id;sensor_type;location;lat;lon;timestamp;P1;durP1;ratioP1;P2;durP2;ratioP2
72413;SDS011;60995;52.154;4.498;2022-08-03T00:02:06;15.32;;;2.53;;
72413;SDS011;60995;52.154;4.498;2022-08-03T00:04:38;18.30;;;3.00;;
72413;SDS011;60995;52.154;4.498;2022-08-03T00:06:57;14.13;;;2.50;;
72413;SDS011;60995;52.154;4.498;2022-08-03T00:09:17;16.80;;;2.95;;
72413;SDS011;60995;52.154;4.498;2022-08-03T00:11:36;14.55;;;2.50;;
72413;SDS011;60995;52.154;4.498;2022-08-03T00:13:55;16.35;;;2.60;;
72413;SDS011;60995;52.154;4.498;2022-08-03T00:16:14;20.98;;;2.85;;
72413;SDS011;60995;52.154;4.498;2022-08-03T00:18:33;13.10;;;2.60;;
72413;SDS011;60995;52.154;4.498;2022-08-03T00:20:50;18.90;;;3.33;;
72413;SDS011;60995;52.154;4.498;2022-08-03T00:23:08;17.95;;;2.75;;
72413;SDS011;60995;52.154;4.498;2022-08-03T00:25:25;16.08;;;2.70;;
72413;SDS011;60995;52.154;4.498;2022-08-03T00:27:42;18.85;;;2.67;;
72413;SDS011;60995;52.154;4.498;2022-08-03T00:29:58;17.52;;;2.63;;
72413;SDS011;60995;52.154;4.498;2022-08-03T00:32:15;19.50;;;3.83;;
72413;SDS011;60995;52.154;4.498;2022-08-03T00:34:37;13.87;;;2.70;;
72413;SDS011;60995;52.154;4.498;2022-08-03T00:36:56;13.82;;;2.88;;
72413;SDS011;60995;52.154;4.498;2022-08-03T00:39:13;14.45;;;2.67;;
72413;SDS011;60995;52.154;4.498;2022-08-03T00:41:29;18.48;;;2.58;;
72413;SDS011;60995;52.154;4.498;2022-08-03T00:43:45;12.38;;;2.55;;
72413;SDS011;60995;52.154;4.498;2022-08-03T00:46:02;13.60;;;2.75;;
72413;SDS011;60995;52.154;4.498;2022-08-03T00:48:21;15.20;;;2.75;;
72413;SDS011;60995;52.154;4.498;2022-08-03T00:50:41;18.98;;;2.83;;
72413;SDS011;60995;52.154;4.498;2022-08-03T00:52:58;15.10;;;2.97;;
72413;SDS011;60995;52.154;4.498;2022-08-03T00:55:18;20.15;;;3.55;;
72413;SDS011;60995;52.154;4.498;2022-08-03T00:57:37;17.92;;;3.20;;
72413;SDS011;60995;52.154;4.498;2022-08-03T00:59:56;14.70;;;2.90;;
72413;SDS011;60995;52.154;4.498;2022-08-03T01:02:15;14.35;;;3.20;;
72413;SDS011;60995;52.154;4.498;2022-08-03T01:04:39;19.92;;;3.28;;
72413;SDS011;60995;52.154;4.498;2022-08-03T01:09:29;13.80;;;2.90;;
72413;SDS011;60995;52.154;4.498;2022-08-03T01:12:15;23.85;;;3.40;;
72413;SDS011;60995;52.154;4.498;2022-08-03T01:15:09;16.50;;;2.78;;
72413;SDS011;60995;52.154;4.498;2022-08-03T01:17:42;19.50;;;2.80;;
72413;SDS011;60995;52.154;4.498;2022-08-03T01:20:14;20.80;;;3.33;;
72413;SDS011;60995;52.154;4.498;2022-08-03T01:30:49;15.70;;;3.33;;
72413;SDS011;60995;52.154;4.498;2022-08-03T01:33:23;16.85;;;3.58;;
72413;SDS011;60995;52.154;4.498;2022-08-03T01:35:49;21.55;;;3.15;;
72413;SDS011;60995;52.154;4.498;2022-08-03T01:38:21;21.92;;;3.58;;
72413;SDS011;60995;52.154;4.498;2022-08-03T01:40:44;19.50;;;3.50;;
72413;SDS011;60995;52.154;4.498;2022-08-03T01:43:03;20.65;;;3.40;;
72413;SDS011;60995;52.154;4.498;2022-08-03T01:45:24;20.92;;;3.47;;
72413;SDS011;60995;52.154;4.498;2022-08-03T01:47:44;16.55;;;3.10;;
72413;SDS011;60995;52.154;4.498;2022-08-03T01:50:03;16.30;;;3.70;;
72413;SDS011;60995;52.154;4.498;2022-08-03T01:52:23;22.10;;;3.28;;
72413;SDS011;60995;52.154;4.498;2022-08-03T01:54:41;21.05;;;3.38;;
72413;SDS011;60995;52.154;4.498;2022-08-03T01:57:03;16.73;;;3.30;;
72413;SDS011;60995;52.154;4.498;2022-08-03T01:59:20;15.27;;;2.92;;
72413;SDS011;60995;52.154;4.498;2022-08-03T02:01:38;16.33;;;4.05;;
72413;SDS011;60995;52.154;4.498;2022-08-03T02:03:56;21.77;;;4.00;;
72413;SDS011;60995;52.154;4.498;2022-08-03T02:06:18;18.17;;;3.80;;
72413;SDS011;60995;52.154;4.498;2022-08-03T02:08:38;20.15;;;3.35;;
72413;SDS011;60995;52.154;4.498;2022-08-03T02:10:58;20.23;;;3.67;;
72413;SDS011;60995;52.154;4.498;2022-08-03T02:13:21;23.90;;;3.97;;
72413;SDS011;60995;52.154;4.498;2022-08-03T02:15:40;22.55;;;4.00;;
72413;SDS011;60995;52.154;4.498;2022-08-03T02:17:59;18.33;;;3.55;;
72413;SDS011;60995;52.154;4.498;2022-08-03T02:20:21;21.38;;;4.30;;
72413;SDS011;60995;52.154;4.498;2022-08-03T02:22:43;19.98;;;3.97;;
72413;SDS011;60995;52.154;4.498;2022-08-03T02:25:01;19.83;;;3.67;;
72413;SDS011;60995;52.154;4.498;2022-08-03T02:27:24;21.30;;;3.60;;
72413;SDS011;60995;52.154;4.498;2022-08-03T02:29:48;17.05;;;3.70;;
72413;SDS011;60995;52.154;4.498;2022-08-03T02:32:20;15.32;;;3.65;;
72413;SDS011;60995;52.154;4.498;2022-08-03T02:34:50;17.55;;;3.38;;
72413;SDS011;60995;52.154;4.498;2022-08-03T02:37:16;20.48;;;3.92;;
72413;SDS011;60995;52.154;4.498;2022-08-03T02:39:39;18.15;;;3.63;;
72413;SDS011;60995;52.154;4.498;2022-08-03T02:42:09;26.25;;;4.03;;
72413;SDS011;60995;52.154;4.498;2022-08-03T02:44:31;21.50;;;3.65;;
72413;SDS011;60995;52.154;4.498;2022-08-03T02:46:52;15.52;;;3.50;;
72413;SDS011;60995;52.154;4.498;2022-08-03T02:49:17;15.10;;;3.17;;
72413;SDS011;60995;52.154;4.498;2022-08-03T02:51:41;20.30;;;3.65;;
72413;SDS011;60995;52.154;4.498;2022-08-03T02:54:02;18.98;;;3.40;;
72413;SDS011;60995;52.154;4.498;2022-08-03T02:56:21;15.75;;;3.35;;
72413;SDS011;60995;52.154;4.498;2022-08-03T02:58:41;19.55;;;3.70;;
72413;SDS011;60995;52.154;4.498;2022-08-03T03:01:06;19.58;;;3.40;;
72413;SDS011;60995;52.154;4.498;2022-08-03T03:03:24;12.23;;;3.22;;
72413;SDS011;60995;52.154;4.498;2022-08-03T03:05:43;17.70;;;3.28;;
72413;SDS011;60995;52.154;4.498;2022-08-03T03:08:01;18.10;;;3.53;;
72413;SDS011;60995;52.154;4.498;2022-08-03T03:10:22;18.42;;;3.60;;
72413;SDS011;60995;52.154;4.498;2022-08-03T03:12:40;17.63;;;3.90;;
72413;SDS011;60995;52.154;4.498;2022-08-03T03:15:00;14.32;;;3.60;;
72413;SDS011;60995;52.154;4.498;2022-08-03T03:17:22;19.15;;;3.88;;
72413;SDS011;60995;52.154;4.498;2022-08-03T03:19:44;22.73;;;3.85;;
72413;SDS011;60995;52.154;4.498;2022-08-03T03:22:06;20.10;;;4.00;;
72413;SDS011;60995;52.154;4.498;2022-08-03T03:24:24;17.90;;;4.32;;
72413;SDS011;60995;52.154;4.498;2022-08-03T03:26:45;13.90;;;3.95;;
72413;SDS011;60995;52.154;4.498;2022-08-03T03:29:03;15.88;;;3.53;;
72413;SDS011;60995;52.154;4.498;2022-08-03T03:31:24;20.65;;;4.03;;
72413;SDS011;60995;52.154;4.498;2022-08-03T03:33:40;17.08;;;3.90;;
72413;SDS011;60995;52.154;4.498;2022-08-03T03:35:57;15.95;;;3.85;;
72413;SDS011;60995;52.154;4.498;2022-08-03T03:38:14;18.27;;;4.25;;
72413;SDS011;60995;52.154;4.498;2022-08-03T03:40:31;17.90;;;3.67;;
72413;SDS011;60995;52.154;4.498;2022-08-03T03:42:48;16.75;;;3.53;;
72413;SDS011;60995;52.154;4.498;2022-08-03T03:45:06;15.13;;;4.05;;
72413;SDS011;60995;52.154;4.498;2022-08-03T03:47:23;20.25;;;3.63;;
72413;SDS011;60995;52.154;4.498;2022-08-03T03:49:39;13.75;;;3.58;;
72413;SDS011;60995;52.154;4.498;2022-08-03T03:51:57;15.77;;;3.60;;
72413;SDS011;60995;52.154;4.498;2022-08-03T03:54:13;17.80;;;3.70;;
72413;SDS011;60995;52.154;4.498;2022-08-03T03:56:30;19.10;;;3.95;;
72413;SDS011;60995;52.154;4.498;2022-08-03T03:58:46;15.25;;;3.72;;
72413;SDS011;60995;52.154;4.498;2022-08-03T04:01:02;16.98;;;3.83;;
72413;SDS011;60995;52.154;4.498;2022-08-03T04:03:19;30.75;;;4.60;;
72413;SDS011;60995;52.154;4.498;2022-08-03T04:05:38;18.60;;;3.72;;
72413;SDS011;60995;52.154;4.498;2022-08-03T04:08:14;20.08;;;4.28;;
72413;SDS011;60995;52.154;4.498;2022-08-03T04:10:55;18.42;;;4.28;;
72413;SDS011;60995;52.154;4.498;2022-08-03T04:13:59;21.95;;;4.25;;
72413;SDS011;60995;52.154;4.498;2022-08-03T04:16:32;19.00;;;4.63;;
72413;SDS011;60995;52.154;4.498;2022-08-03T04:18:57;16.75;;;3.85;;
72413;SDS011;60995;52.154;4.498;2022-08-03T04:21:22;21.63;;;4.28;;
72413;SDS011;60995;52.154;4.498;2022-08-03T04:23:41;16.40;;;4.28;;
72413;SDS011;60995;52.154;4.498;2022-08-03T04:26:03;20.70;;;4.60;;
72413;SDS011;60995;52.154;4.498;2022-08-03T04:28:24;19.05;;;4.90;;
72413;SDS011;60995;52.154;4.498;2022-08-03T04:30:44;16.83;;;3.95;;
72413;SDS011;60995;52.154;4.498;2022-08-03T04:33:08;21.88;;;4.80;;
72413;SDS011;60995;52.154;4.498;2022-08-03T04:35:25;15.05;;;3.67;;
72413;SDS011;60995;52.154;4.498;2022-08-03T04:37:48;21.38;;;4.45;;
72413;SDS011;60995;52.154;4.498;2022-08-03T04:40:12;20.88;;;4.10;;
72413;SDS011;60995;52.154;4.498;2022-08-03T04:42:34;20.80;;;4.18;;
72413;SDS011;60995;52.154;4.498;2022-08-03T04:44:53;13.75;;;3.63;;
72413;SDS011;60995;52.154;4.498;2022-08-03T04:47:12;21.48;;;4.80;;
72413;SDS011;60995;52.154;4.498;2022-08-03T04:49:31;16.08;;;4.22;;
72413;SDS011;60995;52.154;4.498;2022-08-03T04:51:51;18.58;;;4.75;;
72413;SDS011;60995;52.154;4.498;2022-08-03T04:54:11;20.95;;;4.18;;
72413;SDS011;60995;52.154;4.498;2022-08-03T04:56:38;21.63;;;4.53;;
72413;SDS011;60995;52.154;4.498;2022-08-03T04:58:58;22.48;;;4.20;;
72413;SDS011;60995;52.154;4.498;2022-08-03T05:01:15;17.33;;;4.35;;
72413;SDS011;60995;52.154;4.498;2022-08-03T05:03:35;20.73;;;4.60;;
72413;SDS011;60995;52.154;4.498;2022-08-03T05:05:52;22.45;;;5.22;;
72413;SDS011;60995;52.154;4.498;2022-08-03T05:08:10;23.45;;;4.55;;
72413;SDS011;60995;52.154;4.498;2022-08-03T05:10:26;17.95;;;4.20;;
72413;SDS011;60995;52.154;4.498;2022-08-03T05:12:45;15.25;;;4.25;;
72413;SDS011;60995;52.154;4.498;2022-08-03T05:15:09;18.02;;;4.28;;
72413;SDS011;60995;52.154;4.498;2022-08-03T05:17:33;24.30;;;4.32;;
72413;SDS011;60995;52.154;4.498;2022-08-03T05:19:58;22.50;;;4.55;;
72413;SDS011;60995;52.154;4.498;2022-08-03T05:22:20;21.02;;;4.60;;
72413;SDS011;60995;52.154;4.498;2022-08-03T05:24:48;20.55;;;4.15;;
72413;SDS011;60995;52.154;4.498;2022-08-03T05:27:16;21.75;;;4.57;;
72413;SDS011;60995;52.154;4.498;2022-08-03T05:29:35;18.58;;;4.53;;
72413;SDS011;60995;52.154;4.498;2022-08-03T05:31:52;22.52;;;4.30;;
72413;SDS011;60995;52.154;4.498;2022-08-03T05:34:11;22.98;;;5.13;;
72413;SDS011;60995;52.154;4.498;2022-08-03T05:36:28;25.90;;;4.75;;
72413;SDS011;60995;52.154;4.498;2022-08-03T05:38:44;20.40;;;4.75;;
72413;SDS011;60995;52.154;4.498;2022-08-03T05:41:04;28.20;;;4.78;;
72413;SDS011;60995;52.154;4.498;2022-08-03T05:43:23;20.98;;;4.78;;
72413;SDS011;60995;52.154;4.498;2022-08-03T05:45:51;25.67;;;5.30;;
72413;SDS011;60995;52.154;4.498;2022-08-03T05:48:18;22.13;;;5.32;;
72413;SDS011;60995;52.154;4.498;2022-08-03T05:50:43;23.20;;;4.97;;
72413;SDS011;60995;52.154;4.498;2022-08-03T05:53:04;20.48;;;4.68;;
72413;SDS011;60995;52.154;4.498;2022-08-03T05:55:23;21.52;;;4.57;;
72413;SDS011;60995;52.154;4.498;2022-08-03T05:57:42;19.48;;;4.70;;
72413;SDS011;60995;52.154;4.498;2022-08-03T06:00:06;19.05;;;5.22;;
72413;SDS011;60995;52.154;4.498;2022-08-03T06:02:28;23.10;;;4.75;;
72413;SDS011;60995;52.154;4.498;2022-08-03T06:04:44;21.67;;;5.45;;
72413;SDS011;60995;52.154;4.498;2022-08-03T06:07:10;22.48;;;5.63;;
72413;SDS011;60995;52.154;4.498;2022-08-03T06:09:29;27.95;;;6.07;;
72413;SDS011;60995;52.154;4.498;2022-08-03T06:11:58;20.33;;;5.47;;
72413;SDS011;60995;52.154;4.498;2022-08-03T06:14:14;24.08;;;5.30;;
72413;SDS011;60995;52.154;4.498;2022-08-03T06:16:35;27.48;;;5.65;;
72413;SDS011;60995;52.154;4.498;2022-08-03T06:18:56;20.65;;;5.15;;
72413;SDS011;60995;52.154;4.498;2022-08-03T06:21:15;23.17;;;6.15;;
72413;SDS011;60995;52.154;4.498;2022-08-03T06:23:32;23.65;;;6.68;;
72413;SDS011;60995;52.154;4.498;2022-08-03T06:25:48;25.15;;;7.28;;
72413;SDS011;60995;52.154;4.498;2022-08-03T06:28:08;22.08;;;7.13;;
72413;SDS011;60995;52.154;4.498;2022-08-03T06:30:25;25.35;;;7.20;;
72413;SDS011;60995;52.154;4.498;2022-08-03T06:32:44;21.42;;;5.72;;
72413;SDS011;60995;52.154;4.498;2022-08-03T06:35:00;25.40;;;5.93;;
72413;SDS011;60995;52.154;4.498;2022-08-03T06:37:17;29.08;;;6.65;;
72413;SDS011;60995;52.154;4.498;2022-08-03T06:39:41;19.45;;;7.18;;
72413;SDS011;60995;52.154;4.498;2022-08-03T06:42:01;23.77;;;7.35;;
72413;SDS011;60995;52.154;4.498;2022-08-03T06:44:21;23.88;;;7.38;;
72413;SDS011;60995;52.154;4.498;2022-08-03T06:46:37;23.48;;;6.82;;
72413;SDS011;60995;52.154;4.498;2022-08-03T06:48:54;29.42;;;7.10;;
72413;SDS011;60995;52.154;4.498;2022-08-03T06:51:11;21.38;;;7.30;;
72413;SDS011;60995;52.154;4.498;2022-08-03T06:53:40;22.20;;;8.07;;
72413;SDS011;60995;52.154;4.498;2022-08-03T06:56:11;21.10;;;7.45;;
72413;SDS011;60995;52.154;4.498;2022-08-03T06:58:35;23.17;;;8.00;;
72413;SDS011;60995;52.154;4.498;2022-08-03T07:01:02;26.02;;;8.13;;
72413;SDS011;60995;52.154;4.498;2022-08-03T07:03:31;17.73;;;7.60;;
72413;SDS011;60995;52.154;4.498;2022-08-03T07:05:49;25.35;;;8.63;;
72413;SDS011;60995;52.154;4.498;2022-08-03T07:08:10;25.35;;;9.18;;
72413;SDS011;60995;52.154;4.498;2022-08-03T07:10:26;40.90;;;23.30;;
72413;SDS011;60995;52.154;4.498;2022-08-03T07:12:43;30.38;;;11.30;;
72413;SDS011;60995;52.154;4.498;2022-08-03T07:14:59;24.23;;;9.60;;
72413;SDS011;60995;52.154;4.498;2022-08-03T07:17:17;28.38;;;10.10;;
72413;SDS011;60995;52.154;4.498;2022-08-03T07:19:33;28.10;;;9.45;;
72413;SDS011;60995;52.154;4.498;2022-08-03T07:21:52;31.30;;;11.23;;
72413;SDS011;60995;52.154;4.498;2022-08-03T07:24:08;28.02;;;10.95;;
72413;SDS011;60995;52.154;4.498;2022-08-03T07:26:24;19.98;;;10.02;;
72413;SDS011;60995;52.154;4.498;2022-08-03T07:28:40;23.15;;;9.35;;
72413;SDS011;60995;52.154;4.498;2022-08-03T07:30:57;27.40;;;8.60;;
72413;SDS011;60995;52.154;4.498;2022-08-03T07:33:14;25.17;;;8.27;;
72413;SDS011;60995;52.154;4.498;2022-08-03T07:35:30;19.92;;;7.75;;
72413;SDS011;60995;52.154;4.498;2022-08-03T07:37:46;23.08;;;7.78;;
72413;SDS011;60995;52.154;4.498;2022-08-03T07:40:03;19.88;;;7.65;;
72413;SDS011;60995;52.154;4.498;2022-08-03T07:42:21;22.45;;;7.85;;
72413;SDS011;60995;52.154;4.498;2022-08-03T07:44:40;20.10;;;6.18;;
72413;SDS011;60995;52.154;4.498;2022-08-03T07:46:57;23.58;;;6.32;;
72413;SDS011;60995;52.154;4.498;2022-08-03T07:49:13;19.35;;;6.15;;
72413;SDS011;60995;52.154;4.498;2022-08-03T07:51:29;20.25;;;6.00;;
72413;SDS011;60995;52.154;4.498;2022-08-03T07:53:45;19.08;;;6.63;;
72413;SDS011;60995;52.154;4.498;2022-08-03T07:56:02;20.02;;;6.07;;
72413;SDS011;60995;52.154;4.498;2022-08-03T07:58:18;23.00;;;7.00;;
72413;SDS011;60995;52.154;4.498;2022-08-03T08:00:35;22.33;;;7.30;;
72413;SDS011;60995;52.154;4.498;2022-08-03T08:02:52;20.75;;;7.35;;
72413;SDS011;60995;52.154;4.498;2022-08-03T08:05:09;22.50;;;6.22;;
72413;SDS011;60995;52.154;4.498;2022-08-03T08:07:27;23.10;;;6.72;;
72413;SDS011;60995;52.154;4.498;2022-08-03T08:09:43;19.27;;;5.93;;
72413;SDS011;60995;52.154;4.498;2022-08-03T08:11:59;21.30;;;6.00;;
72413;SDS011;60995;52.154;4.498;2022-08-03T08:14:16;27.95;;;7.07;;
72413;SDS011;60995;52.154;4.498;2022-08-03T08:16:32;24.40;;;5.82;;
72413;SDS011;60995;52.154;4.498;2022-08-03T08:18:48;24.00;;;6.15;;
72413;SDS011;60995;52.154;4.498;2022-08-03T08:21:05;19.88;;;5.57;;
72413;SDS011;60995;52.154;4.498;2022-08-03T08:23:21;17.95;;;5.40;;
72413;SDS011;60995;52.154;4.498;2022-08-03T08:25:38;18.95;;;5.22;;
72413;SDS011;60995;52.154;4.498;2022-08-03T08:27:55;17.98;;;5.05;;
72413;SDS011;60995;52.154;4.498;2022-08-03T08:30:12;19.25;;;4.90;;
72413;SDS011;60995;52.154;4.498;2022-08-03T08:32:36;25.23;;;5.45;;
72413;SDS011;60995;52.154;4.498;2022-08-03T08:34:52;21.65;;;5.28;;
72413;SDS011;60995;52.154;4.498;2022-08-03T08:37:09;18.98;;;4.22;;
72413;SDS011;60995;52.154;4.498;2022-08-03T08:39:25;20.83;;;4.50;;
72413;SDS011;60995;52.154;4.498;2022-08-03T08:41:41;19.20;;;4.25;;
72413;SDS011;60995;52.154;4.498;2022-08-03T08:43:58;18.92;;;4.85;;
72413;SDS011;60995;52.154;4.498;2022-08-03T08:46:14;19.58;;;4.70;;
72413;SDS011;60995;52.154;4.498;2022-08-03T08:48:34;22.67;;;4.93;;
72413;SDS011;60995;52.154;4.498;2022-08-03T08:50:56;15.57;;;4.82;;
72413;SDS011;60995;52.154;4.498;2022-08-03T08:53:17;19.27;;;4.73;;
72413;SDS011;60995;52.154;4.498;2022-08-03T08:55:36;16.17;;;4.25;;
72413;SDS011;60995;52.154;4.498;2022-08-03T08:57:57;13.02;;;3.97;;
72413;SDS011;60995;52.154;4.498;2022-08-03T09:00:18;16.88;;;4.00;;
72413;SDS011;60995;52.154;4.498;2022-08-03T09:02:35;13.40;;;3.67;;
72413;SDS011;60995;52.154;4.498;2022-08-03T09:04:52;19.17;;;4.22;;
72413;SDS011;60995;52.154;4.498;2022-08-03T09:07:09;17.10;;;4.05;;
72413;SDS011;60995;52.154;4.498;2022-08-03T09:09:25;19.88;;;5.68;;
72413;SDS011;60995;52.154;4.498;2022-08-03T09:11:48;26.23;;;14.30;;
72413;SDS011;60995;52.154;4.498;2022-08-03T09:14:04;19.13;;;6.68;;
72413;SDS011;60995;52.154;4.498;2022-08-03T09:16:25;18.20;;;7.95;;
72413;SDS011;60995;52.154;4.498;2022-08-03T09:18:42;23.00;;;4.85;;
72413;SDS011;60995;52.154;4.498;2022-08-03T09:21:22;19.63;;;5.22;;
72413;SDS011;60995;52.154;4.498;2022-08-03T09:23:47;18.08;;;4.05;;
72413;SDS011;60995;52.154;4.498;2022-08-03T09:26:05;18.77;;;4.78;;
72413;SDS011;60995;52.154;4.498;2022-08-03T09:28:22;16.77;;;3.85;;
72413;SDS011;60995;52.154;4.498;2022-08-03T09:30:40;19.20;;;3.75;;
72413;SDS011;60995;52.154;4.498;2022-08-03T09:32:59;18.05;;;3.60;;
72413;SDS011;60995;52.154;4.498;2022-08-03T09:37:42;14.85;;;3.42;;
72413;SDS011;60995;52.154;4.498;2022-08-03T09:39:58;15.52;;;3.70;;
72413;SDS011;60995;52.154;4.498;2022-08-03T09:42:16;19.63;;;6.22;;
72413;SDS011;60995;52.154;4.498;2022-08-03T09:44:38;18.30;;;5.65;;
72413;SDS011;60995;52.154;4.498;2022-08-03T09:46:56;14.05;;;3.60;;
72413;SDS011;60995;52.154;4.498;2022-08-03T09:49:13;18.20;;;3.97;;
72413;SDS011;60995;52.154;4.498;2022-08-03T09:51:29;11.35;;;2.80;;
72413;SDS011;60995;52.154;4.498;2022-08-03T09:53:46;21.83;;;3.42;;
72413;SDS011;60995;52.154;4.498;2022-08-03T09:56:02;18.88;;;3.85;;
72413;SDS011;60995;52.154;4.498;2022-08-03T09:58:20;13.40;;;3.28;;
72413;SDS011;60995;52.154;4.498;2022-08-03T10:01:11;24.33;;;6.38;;
72413;SDS011;60995;52.154;4.498;2022-08-03T10:03:21;18.58;;;3.50;;
72413;SDS011;60995;52.154;4.498;2022-08-03T10:05:39;18.08;;;3.72;;
72413;SDS011;60995;52.154;4.498;2022-08-03T10:07:59;19.95;;;3.60;;
72413;SDS011;60995;52.154;4.498;2022-08-03T10:10:16;18.80;;;3.60;;
72413;SDS011;60995;52.154;4.498;2022-08-03T10:12:33;14.30;;;3.40;;
72413;SDS011;60995;52.154;4.498;2022-08-03T10:14:49;22.40;;;4.57;;
72413;SDS011;60995;52.154;4.498;2022-08-03T10:17:10;20.80;;;3.58;;
72413;SDS011;60995;52.154;4.498;2022-08-03T10:19:26;13.35;;;3.08;;
72413;SDS011;60995;52.154;4.498;2022-08-03T10:21:48;17.65;;;3.67;;
72413;SDS011;60995;52.154;4.498;2022-08-03T10:24:08;17.52;;;3.30;;
72413;SDS011;60995;52.154;4.498;2022-08-03T10:26:27;16.02;;;3.17;;
72413;SDS011;60995;52.154;4.498;2022-08-03T10:28:48;15.15;;;3.42;;
72413;SDS011;60995;52.154;4.498;2022-08-03T10:31:11;16.42;;;3.40;;
72413;SDS011;60995;52.154;4.498;2022-08-03T10:33:30;18.13;;;8.35;;
72413;SDS011;60995;52.154;4.498;2022-08-03T10:35:53;17.92;;;5.50;;
72413;SDS011;60995;52.154;4.498;2022-08-03T10:38:15;15.98;;;3.10;;
72413;SDS011;60995;52.154;4.498;2022-08-03T10:40:36;19.85;;;3.25;;
72413;SDS011;60995;52.154;4.498;2022-08-03T10:42:56;20.23;;;3.30;;
72413;SDS011;60995;52.154;4.498;2022-08-03T10:45:27;17.20;;;3.40;;
72413;SDS011;60995;52.154;4.498;2022-08-03T10:47:51;18.00;;;2.92;;
72413;SDS011;60995;52.154;4.498;2022-08-03T10:50:10;15.10;;;2.90;;
72413;SDS011;60995;52.154;4.498;2022-08-03T10:52:30;23.20;;;3.47;;
72413;SDS011;60995;52.154;4.498;2022-08-03T10:54:47;13.80;;;2.63;;
72413;SDS011;60995;52.154;4.498;2022-08-03T11:00:08;19.35;;;3.05;;
72413;SDS011;60995;52.154;4.498;2022-08-03T11:03:00;19.65;;;3.83;;
72413;SDS011;60995;52.154;4.498;2022-08-03T11:05:26;18.40;;;3.60;;
72413;SDS011;60995;52.154;4.498;2022-08-03T11:07:52;16.80;;;3.63;;
72413;SDS011;60995;52.154;4.498;2022-08-03T11:10:41;18.67;;;2.90;;
72413;SDS011;60995;52.154;4.498;2022-08-03T11:13:04;18.13;;;3.15;;
72413;SDS011;60995;52.154;4.498;2022-08-03T11:15:30;14.43;;;3.08;;
72413;SDS011;60995;52.154;4.498;2022-08-03T11:18:04;16.40;;;3.35;;
72413;SDS011;60995;52.154;4.498;2022-08-03T11:20:43;12.52;;;3.15;;
72413;SDS011;60995;52.154;4.498;2022-08-03T11:23:01;19.45;;;3.40;;
72413;SDS011;60995;52.154;4.498;2022-08-03T11:25:18;18.17;;;3.67;;
72413;SDS011;60995;52.154;4.498;2022-08-03T11:27:37;19.33;;;3.47;;
72413;SDS011;60995;52.154;4.498;2022-08-03T11:35:06;12.95;;;2.80;;
72413;SDS011;60995;52.154;4.498;2022-08-03T11:38:02;19.10;;;3.13;;
72413;SDS011;60995;52.154;4.498;2022-08-03T11:45:55;19.00;;;4.50;;
72413;SDS011;60995;52.154;4.498;2022-08-03T11:48:12;16.08;;;3.05;;
72413;SDS011;60995;52.154;4.498;2022-08-03T11:50:34;15.35;;;2.80;;
72413;SDS011;60995;52.154;4.498;2022-08-03T11:52:52;12.90;;;2.42;;
72413;SDS011;60995;52.154;4.498;2022-08-03T11:55:09;11.68;;;2.45;;
72413;SDS011;60995;52.154;4.498;2022-08-03T11:57:28;12.43;;;2.33;;
72413;SDS011;60995;52.154;4.498;2022-08-03T11:59:49;15.15;;;3.28;;
72413;SDS011;60995;52.154;4.498;2022-08-03T12:02:09;11.82;;;2.60;;
72413;SDS011;60995;52.154;4.498;2022-08-03T12:04:30;15.23;;;2.38;;
72413;SDS011;60995;52.154;4.498;2022-08-03T12:07:03;14.27;;;2.28;;
72413;SDS011;60995;52.154;4.498;2022-08-03T12:09:20;13.38;;;2.63;;
72413;SDS011;60995;52.154;4.498;2022-08-03T12:11:37;13.38;;;3.10;;
72413;SDS011;60995;52.154;4.498;2022-08-03T12:13:53;16.42;;;3.50;;
72413;SDS011;60995;52.154;4.498;2022-08-03T12:16:10;14.30;;;2.80;;
72413;SDS011;60995;52.154;4.498;2022-08-03T12:18:34;15.05;;;2.88;;
72413;SDS011;60995;52.154;4.498;2022-08-03T12:20:51;10.57;;;2.47;;
72413;SDS011;60995;52.154;4.498;2022-08-03T12:23:19;12.65;;;2.22;;
72413;SDS011;60995;52.154;4.498;2022-08-03T12:25:36;9.05;;;2.50;;
72413;SDS011;60995;52.154;4.498;2022-08-03T12:28:04;13.75;;;2.60;;
72413;SDS011;60995;52.154;4.498;2022-08-03T12:30:33;12.00;;;2.28;;
72413;SDS011;60995;52.154;4.498;2022-08-03T12:32:51;16.77;;;2.45;;
72413;SDS011;60995;52.154;4.498;2022-08-03T12:35:07;13.90;;;2.20;;
72413;SDS011;60995;52.154;4.498;2022-08-03T12:37:24;13.95;;;2.88;;
72413;SDS011;60995;52.154;4.498;2022-08-03T12:39:42;12.68;;;3.28;;
72413;SDS011;60995;52.154;4.498;2022-08-03T12:42:06;13.15;;;2.53;;
72413;SDS011;60995;52.154;4.498;2022-08-03T12:44:32;16.50;;;5.15;;
72413;SDS011;60995;52.154;4.498;2022-08-03T12:46:56;15.50;;;2.40;;
72413;SDS011;60995;52.154;4.498;2022-08-03T12:49:14;16.08;;;2.63;;
72413;SDS011;60995;52.154;4.498;2022-08-03T12:51:37;13.68;;;2.53;;
72413;SDS011;60995;52.154;4.498;2022-08-03T12:53:57;13.98;;;2.35;;
72413;SDS011;60995;52.154;4.498;2022-08-03T12:56:14;15.40;;;2.90;;
72413;SDS011;60995;52.154;4.498;2022-08-03T12:58:31;17.52;;;2.30;;
72413;SDS011;60995;52.154;4.498;2022-08-03T13:00:56;12.85;;;2.65;;
72413;SDS011;60995;52.154;4.498;2022-08-03T13:03:12;13.07;;;2.83;;
72413;SDS011;60995;52.154;4.498;2022-08-03T13:05:30;18.38;;;3.08;;
72413;SDS011;60995;52.154;4.498;2022-08-03T13:07:47;15.27;;;3.05;;
72413;SDS011;60995;52.154;4.498;2022-08-03T13:10:03;12.80;;;2.45;;
72413;SDS011;60995;52.154;4.498;2022-08-03T13:12:21;10.90;;;2.55;;
72413;SDS011;60995;52.154;4.498;2022-08-03T13:14:41;16.80;;;2.58;;
72413;SDS011;60995;52.154;4.498;2022-08-03T13:17:00;12.15;;;2.58;;
72413;SDS011;60995;52.154;4.498;2022-08-03T13:19:17;10.90;;;2.80;;
72413;SDS011;60995;52.154;4.498;2022-08-03T13:21:33;13.90;;;2.75;;
72413;SDS011;60995;52.154;4.498;2022-08-03T13:23:49;13.82;;;3.42;;
72413;SDS011;60995;52.154;4.498;2022-08-03T13:26:05;11.30;;;2.40;;
72413;SDS011;60995;52.154;4.498;2022-08-03T13:28:22;16.65;;;2.70;;
72413;SDS011;60995;52.154;4.498;2022-08-03T13:30:38;19.30;;;2.97;;
72413;SDS011;60995;52.154;4.498;2022-08-03T13:32:55;11.40;;;2.47;;
72413;SDS011;60995;52.154;4.498;2022-08-03T13:35:16;13.35;;;3.05;;
72413;SDS011;60995;52.154;4.498;2022-08-03T13:37:32;14.07;;;3.45;;
72413;SDS011;60995;52.154;4.498;2022-08-03T13:39:49;15.63;;;2.58;;
72413;SDS011;60995;52.154;4.498;2022-08-03T13:42:06;13.98;;;2.80;;
72413;SDS011;60995;52.154;4.498;2022-08-03T13:44:23;15.65;;;3.15;;
72413;SDS011;60995;52.154;4.498;2022-08-03T13:46:39;11.15;;;2.50;;
72413;SDS011;60995;52.154;4.498;2022-08-03T13:48:56;14.25;;;2.15;;
72413;SDS011;60995;52.154;4.498;2022-08-03T13:51:12;12.52;;;2.08;;
72413;SDS011;60995;52.154;4.498;2022-08-03T13:53:29;13.55;;;2.28;;
72413;SDS011;60995;52.154;4.498;2022-08-03T13:55:45;13.52;;;2.10;;
72413;SDS011;60995;52.154;4.498;2022-08-03T13:58:01;16.25;;;2.58;;
72413;SDS011;60995;52.154;4.498;2022-08-03T14:00:18;11.27;;;1.65;;
72413;SDS011;60995;52.154;4.498;2022-08-03T14:02:38;11.68;;;2.05;;
72413;SDS011;60995;52.154;4.498;2022-08-03T14:04:55;11.98;;;1.90;;
72413;SDS011;60995;52.154;4.498;2022-08-03T14:07:11;12.38;;;1.85;;
72413;SDS011;60995;52.154;4.498;2022-08-03T14:09:29;8.95;;;1.80;;
72413;SDS011;60995;52.154;4.498;2022-08-03T14:11:48;12.98;;;1.83;;
72413;SDS011;60995;52.154;4.498;2022-08-03T14:14:04;8.57;;;1.70;;
72413;SDS011;60995;52.154;4.498;2022-08-03T14:16:24;13.98;;;1.95;;
72413;SDS011;60995;52.154;4.498;2022-08-03T14:18:40;11.43;;;1.70;;
72413;SDS011;60995;52.154;4.498;2022-08-03T14:20:57;9.38;;;1.95;;